createdAt,value
2022-10-16T00:01:49.495Z,0.90
2022-10-16T00:04:19.375Z,0.90
2022-10-16T00:06:47.339Z,1.00
2022-10-16T00:09:15.514Z,0.80
2022-10-16T00:11:43.992Z,1.00
2022-10-16T00:14:15.268Z,0.90
2022-10-16T00:16:45.799Z,0.90
2022-10-16T00:19:14.178Z,1.05
2022-10-16T00:21:43.839Z,0.95
2022-10-16T00:24:12.391Z,1.25
2022-10-16T00:26:41.803Z,0.90
2022-10-16T00:29:12.893Z,1.08
2022-10-16T00:31:40.951Z,1.00
2022-10-16T00:34:09.226Z,1.10
2022-10-16T00:36:37.655Z,0.93
2022-10-16T00:39:07.253Z,0.82
2022-10-16T00:41:35.992Z,0.90
2022-10-16T00:44:05.998Z,1.00
2022-10-16T00:46:41.764Z,0.90
2022-10-16T00:49:12.954Z,1.10
2022-10-16T00:51:46.800Z,0.90
2022-10-16T00:54:22.732Z,1.10
2022-10-16T00:56:52.234Z,1.00
2022-10-16T00:59:23.389Z,0.90
2022-10-16T01:01:51.711Z,1.02
2022-10-16T01:04:20.991Z,0.90
2022-10-16T01:06:58.304Z,1.13
2022-10-16T01:09:33.990Z,1.08
2022-10-16T01:12:10.692Z,1.17
2022-10-16T01:14:45.181Z,0.90
2022-10-16T01:17:17.712Z,0.90
2022-10-16T01:20:03.760Z,1.08
2022-10-16T01:22:40.687Z,1.27
2022-10-16T01:25:18.781Z,1.27
2022-10-16T01:27:50.433Z,1.08
2022-10-16T01:30:23.863Z,1.08
2022-10-16T01:32:57.208Z,1.25
2022-10-16T01:35:29.510Z,1.02
2022-10-16T01:38:03.142Z,1.15
2022-10-16T01:40:34.858Z,1.27
2022-10-16T01:43:08.487Z,1.65
2022-10-16T01:45:38.958Z,1.10
2022-10-16T01:48:10.823Z,0.90
2022-10-16T01:50:43.253Z,1.30
2022-10-16T01:53:14.684Z,1.13
2022-10-16T01:55:46.062Z,1.02
2022-10-16T01:58:17.279Z,1.00
2022-10-16T02:00:48.861Z,1.30
2022-10-16T02:03:21.129Z,1.13
2022-10-16T02:05:53.566Z,1.10
2022-10-16T02:08:21.784Z,0.93
2022-10-16T02:10:50.153Z,1.08
2022-10-16T02:13:26.346Z,0.95
2022-10-16T02:15:54.810Z,1.10
2022-10-16T02:18:23.425Z,0.98
2022-10-16T02:20:57.479Z,0.90
2022-10-16T02:23:33.791Z,1.20
2022-10-16T02:26:04.643Z,1.20
2022-10-16T02:28:40.905Z,0.90
2022-10-16T02:31:13.842Z,0.93
2022-10-16T02:33:44.968Z,1.08
2022-10-16T02:36:13.764Z,1.10
2022-10-16T02:38:42.721Z,0.90
2022-10-16T02:41:12.728Z,0.90
2022-10-16T02:43:42.180Z,1.20
2022-10-16T02:46:11.969Z,1.00
2022-10-16T02:48:40.446Z,0.90
2022-10-16T02:51:08.948Z,1.00
2022-10-16T02:53:37.723Z,1.10
2022-10-16T02:56:06.264Z,0.95
2022-10-16T02:58:36.712Z,1.08
2022-10-16T03:01:06.776Z,1.00
2022-10-16T03:03:35.003Z,1.00
2022-10-16T03:06:04.003Z,1.02
2022-10-16T03:08:31.989Z,1.08
2022-10-16T03:11:00.190Z,1.00
2022-10-16T03:13:28.925Z,0.93
2022-10-16T03:15:58.390Z,1.00
2022-10-16T03:18:27.987Z,1.10
2022-10-16T03:20:55.894Z,1.00
2022-10-16T03:23:23.866Z,1.00
2022-10-16T03:25:51.986Z,1.00
2022-10-16T03:28:20.222Z,1.10
2022-10-16T03:30:48.613Z,1.20
2022-10-16T03:33:16.941Z,1.00
2022-10-16T03:35:54.266Z,0.95
2022-10-16T03:38:23.896Z,1.00
2022-10-16T03:40:52.163Z,1.00
2022-10-16T03:43:20.673Z,1.08
2022-10-16T03:45:48.810Z,1.00
2022-10-16T03:48:17.374Z,0.90
2022-10-16T03:50:47.638Z,0.90
2022-10-16T03:53:16.172Z,0.98
2022-10-16T03:55:44.883Z,0.90
2022-10-16T03:58:13.467Z,1.05
2022-10-16T04:00:43.435Z,1.00
2022-10-16T04:03:11.994Z,1.00
2022-10-16T04:05:40.572Z,0.95
2022-10-16T04:08:12.666Z,1.00
2022-10-16T04:10:40.627Z,0.98
2022-10-16T04:13:08.989Z,1.00
2022-10-16T04:15:37.811Z,1.00
2022-10-16T04:18:06.244Z,1.00
2022-10-16T04:20:34.842Z,1.10
2022-10-16T04:23:03.298Z,1.00
2022-10-16T04:25:33.287Z,0.90
2022-10-16T04:28:03.042Z,0.90
2022-10-16T04:30:31.357Z,1.10
2022-10-16T04:35:28.247Z,1.15
2022-10-16T04:37:56.309Z,1.15
2022-10-16T04:40:24.269Z,1.00
2022-10-16T04:42:55.170Z,1.00
2022-10-16T04:45:23.171Z,1.10
2022-10-16T04:47:51.944Z,0.82
2022-10-16T04:50:20.279Z,1.23
2022-10-16T04:52:48.239Z,1.00
2022-10-16T04:55:18.533Z,1.20
2022-10-16T04:57:46.863Z,1.00
2022-10-16T05:00:16.716Z,1.20
2022-10-16T05:02:45.022Z,1.10
2022-10-16T05:05:13.794Z,1.13
2022-10-16T05:07:46.684Z,1.20
2022-10-16T05:10:14.645Z,1.23
2022-10-16T05:12:42.797Z,1.00
2022-10-16T05:15:11.719Z,1.20
2022-10-16T05:17:44.584Z,1.00
2022-10-16T05:20:13.450Z,1.08
2022-10-16T05:22:42.050Z,0.98
2022-10-16T05:25:10.328Z,1.20
2022-10-16T05:27:38.952Z,1.10
2022-10-16T05:30:11.558Z,1.10
2022-10-16T05:32:42.436Z,1.20
2022-10-16T05:35:12.667Z,1.10
2022-10-16T05:37:41.006Z,0.95
2022-10-16T05:40:10.695Z,1.35
2022-10-16T05:42:41.125Z,1.00
2022-10-16T05:45:12.490Z,1.17
2022-10-16T05:47:42.603Z,1.20
2022-10-16T05:50:11.823Z,1.20
2022-10-16T05:52:40.309Z,1.10
2022-10-16T05:55:09.548Z,1.10
2022-10-16T05:57:37.487Z,1.20
2022-10-16T06:00:07.093Z,1.10
2022-10-16T06:02:35.205Z,1.20
2022-10-16T06:05:04.958Z,0.98
2022-10-16T06:07:37.206Z,1.30
2022-10-16T06:10:06.350Z,1.42
2022-10-16T06:12:34.420Z,1.10
2022-10-16T06:15:02.617Z,0.80
2022-10-16T06:17:30.693Z,1.10
2022-10-16T06:19:58.982Z,1.00
2022-10-16T06:22:28.737Z,1.15
2022-10-16T06:24:57.429Z,1.10
2022-10-16T06:27:26.506Z,1.00
2022-10-16T06:29:55.477Z,1.23
2022-10-16T06:32:23.912Z,1.00
2022-10-16T06:34:51.842Z,1.20
2022-10-16T06:37:19.991Z,1.30
2022-10-16T06:39:51.051Z,1.10
2022-10-16T06:42:19.211Z,1.30
2022-10-16T06:44:47.631Z,1.10
2022-10-16T06:47:15.908Z,1.13
2022-10-16T06:49:43.893Z,1.10
2022-10-16T06:52:12.043Z,1.13
2022-10-16T06:54:42.521Z,1.20
2022-10-16T06:57:12.304Z,1.10
2022-10-16T06:59:44.022Z,1.02
2022-10-16T07:02:14.738Z,1.15
2022-10-16T07:04:42.878Z,1.15
2022-10-16T07:07:10.891Z,1.08
2022-10-16T07:09:40.257Z,0.98
2022-10-16T07:12:08.221Z,1.27
2022-10-16T07:14:37.964Z,1.13
2022-10-16T07:17:06.283Z,1.00
2022-10-16T07:19:34.698Z,1.10
2022-10-16T07:22:10.459Z,1.05
2022-10-16T07:24:38.555Z,0.98
2022-10-16T07:27:06.829Z,1.40
2022-10-16T07:29:35.287Z,0.98
2022-10-16T07:32:05.330Z,1.17
2022-10-16T07:34:33.459Z,1.02
2022-10-16T07:37:01.499Z,1.38
2022-10-16T07:39:29.804Z,1.00
2022-10-16T07:42:00.516Z,1.17
2022-10-16T07:44:30.413Z,1.10
2022-10-16T07:46:58.808Z,1.02
2022-10-16T07:49:29.358Z,1.20
2022-10-16T07:51:57.465Z,1.20
2022-10-16T07:54:25.793Z,1.05
2022-10-16T07:56:53.928Z,1.00
2022-10-16T07:59:22.764Z,1.10
2022-10-16T08:01:51.652Z,1.15
2022-10-16T08:04:19.982Z,1.30
2022-10-16T08:06:51.163Z,1.20
2022-10-16T08:09:25.026Z,1.10
2022-10-16T08:11:54.734Z,0.98
2022-10-16T08:14:24.548Z,1.20
2022-10-16T08:16:52.832Z,1.13
2022-10-16T08:19:23.603Z,1.20
2022-10-16T08:21:53.683Z,1.13
2022-10-16T08:24:22.065Z,1.00
2022-10-16T08:26:50.011Z,1.00
2022-10-16T08:29:20.297Z,1.00
2022-10-16T08:31:53.492Z,1.20
2022-10-16T08:34:22.217Z,1.08
2022-10-16T08:36:55.659Z,1.10
2022-10-16T08:39:25.638Z,1.00
2022-10-16T08:42:28.953Z,1.00
2022-10-16T08:45:32.272Z,1.20
2022-10-16T08:48:31.993Z,1.00
2022-10-16T08:51:00.375Z,1.50
2022-10-16T08:53:33.168Z,1.10
2022-10-16T08:56:04.885Z,1.10
2022-10-16T08:58:44.611Z,1.10
2022-10-16T09:01:19.781Z,1.10
2022-10-16T09:04:04.589Z,1.02
2022-10-16T09:06:43.675Z,1.20
2022-10-16T09:09:46.897Z,1.13
2022-10-16T09:12:24.466Z,1.05
2022-10-16T09:15:15.585Z,1.10
2022-10-16T09:18:03.073Z,1.20
2022-10-16T09:20:42.872Z,1.00
2022-10-16T09:23:19.340Z,1.15
2022-10-16T09:25:50.969Z,1.10
2022-10-16T09:28:22.916Z,1.10
2022-10-16T09:30:51.721Z,1.10
2022-10-16T09:33:22.913Z,1.00
2022-10-16T09:35:55.509Z,1.00
2022-10-16T09:38:26.576Z,1.00
2022-10-16T09:40:59.358Z,1.00
2022-10-16T09:43:39.581Z,0.90
2022-10-16T09:46:10.496Z,0.82
2022-10-16T09:48:42.201Z,0.95
2022-10-16T09:51:25.746Z,1.13
2022-10-16T09:54:00.000Z,0.98
2022-10-16T09:56:33.688Z,1.10
2022-10-16T09:59:15.783Z,1.02
2022-10-16T10:01:49.940Z,1.38
2022-10-16T10:04:51.097Z,1.00
2022-10-16T10:07:42.839Z,1.00
2022-10-16T10:10:34.117Z,1.00
2022-10-16T10:14:09.764Z,1.25
2022-10-16T10:17:21.034Z,1.10
2022-10-16T10:24:24.084Z,0.88
2022-10-16T10:27:17.809Z,1.10
2022-10-16T10:30:45.828Z,0.98
2022-10-16T10:33:31.099Z,1.00
2022-10-16T10:37:44.533Z,1.17
2022-10-16T10:39:56.100Z,1.00
2022-10-16T10:42:40.465Z,1.10
2022-10-16T10:45:38.482Z,0.95
2022-10-16T10:48:32.669Z,1.10
2022-10-16T10:51:23.055Z,0.90
2022-10-16T10:54:01.274Z,1.00
2022-10-16T11:09:55.062Z,0.82
2022-10-16T11:12:28.777Z,1.10
2022-10-16T11:15:23.863Z,1.00
2022-10-16T11:18:01.623Z,1.02
2022-10-16T11:20:37.125Z,1.10
2022-10-16T11:23:43.614Z,0.90
2022-10-16T11:26:48.809Z,1.05
2022-10-16T11:29:49.607Z,1.00
2022-10-16T11:32:35.219Z,0.95
2022-10-16T11:35:25.882Z,0.90
2022-10-16T11:38:03.649Z,1.00
2022-10-16T11:40:42.181Z,0.90
2022-10-16T11:43:32.962Z,1.00
2022-10-16T11:46:30.769Z,0.98
2022-10-16T11:49:36.504Z,1.08
2022-10-16T11:52:28.336Z,0.85
2022-10-16T11:55:22.025Z,0.90
2022-10-16T11:57:59.268Z,1.00
2022-10-16T12:00:32.170Z,0.95
2022-10-16T12:03:17.122Z,0.93
2022-10-16T12:06:15.209Z,1.00
2022-10-16T12:08:47.668Z,0.90
2022-10-16T12:15:14.712Z,0.95
2022-10-16T12:17:42.970Z,1.00
2022-10-16T12:20:41.757Z,1.10
2022-10-16T12:23:24.706Z,0.80
2022-10-16T12:25:58.715Z,0.98
2022-10-16T12:28:31.889Z,1.10
2022-10-16T12:31:04.644Z,1.00
2022-10-16T12:33:41.863Z,0.77
2022-10-16T12:36:24.908Z,0.90
2022-10-16T12:38:58.089Z,0.90
2022-10-16T12:41:42.901Z,0.80
2022-10-16T12:44:29.873Z,1.10
2022-10-16T12:47:01.493Z,0.82
2022-10-16T12:49:39.104Z,0.90
2022-10-16T12:52:33.561Z,1.00
2022-10-16T12:55:10.226Z,0.95
2022-10-16T12:58:05.016Z,0.90
2022-10-16T13:00:48.710Z,0.80
2022-10-16T13:04:04.966Z,1.00
2022-10-16T13:07:07.787Z,0.75
2022-10-16T13:10:18.568Z,0.90
2022-10-16T13:13:59.007Z,1.00
2022-10-16T13:30:44.154Z,0.80
2022-10-16T13:33:39.867Z,0.85
2022-10-16T13:36:37.898Z,0.93
2022-10-16T13:39:34.559Z,0.80
2022-10-16T13:42:15.317Z,0.93
2022-10-16T13:45:04.999Z,0.90
2022-10-16T13:47:45.225Z,1.00
2022-10-16T13:50:22.541Z,1.00
2022-10-16T13:52:56.549Z,0.98
2022-10-16T13:55:26.581Z,0.90
2022-10-16T13:58:07.557Z,0.88
2022-10-16T14:00:48.777Z,1.05
2022-10-16T14:03:48.839Z,0.80
2022-10-16T14:06:29.212Z,0.80
2022-10-16T14:09:32.766Z,0.80
2022-10-16T14:12:08.891Z,0.95
2022-10-16T14:14:49.300Z,0.88
2022-10-16T14:56:00.933Z,0.75
2022-10-16T15:04:43.568Z,0.82
2022-10-16T15:07:31.641Z,1.00
2022-10-16T15:10:19.313Z,1.00
2022-10-16T15:13:01.855Z,0.82
2022-10-16T15:21:42.408Z,0.93
2022-10-16T15:24:17.869Z,0.80
2022-10-16T15:27:50.023Z,0.80
2022-10-16T15:31:31.265Z,0.73
2022-10-16T15:34:27.838Z,0.80
2022-10-16T15:37:31.070Z,1.10
2022-10-16T15:40:44.348Z,0.88
2022-10-16T15:47:12.786Z,0.98
2022-10-16T15:53:39.937Z,1.10
2022-10-16T15:56:45.535Z,0.80
2022-10-16T16:00:07.971Z,0.73
2022-10-16T16:02:38.364Z,0.80
2022-10-16T16:05:08.914Z,1.00
2022-10-16T16:07:37.901Z,1.15
2022-10-16T16:10:10.087Z,1.00
2022-10-16T16:13:05.276Z,1.38
2022-10-16T16:15:47.274Z,1.85
2022-10-16T16:18:25.902Z,1.55
2022-10-16T16:21:08.850Z,1.20
2022-10-16T16:23:44.234Z,1.23
2022-10-16T16:26:16.887Z,1.27
2022-10-16T16:28:47.176Z,1.40
2022-10-16T16:31:36.783Z,1.10
2022-10-16T16:34:06.749Z,1.20
2022-10-16T16:36:39.679Z,1.50
2022-10-16T16:39:08.061Z,1.30
2022-10-16T16:41:38.271Z,1.30
2022-10-16T16:44:12.156Z,1.55
2022-10-16T16:46:47.655Z,1.50
2022-10-16T16:49:16.477Z,1.65
2022-10-16T16:51:45.827Z,1.55
2022-10-16T16:54:14.796Z,1.60
2022-10-16T16:56:45.368Z,1.60
2022-10-16T16:59:16.748Z,1.45
2022-10-16T17:01:49.922Z,1.55
2022-10-16T17:04:24.709Z,1.67
2022-10-16T17:06:54.426Z,1.50
2022-10-16T17:09:23.147Z,1.40
2022-10-16T17:11:53.059Z,1.42
2022-10-16T17:14:21.330Z,1.70
2022-10-16T17:16:52.072Z,1.73
2022-10-16T17:19:22.932Z,1.80
2022-10-16T17:21:52.326Z,1.70
2022-10-16T17:24:25.037Z,1.60
2022-10-16T17:26:55.647Z,1.58
2022-10-16T17:29:28.309Z,1.92
2022-10-16T17:32:01.919Z,2.00
2022-10-16T17:34:30.227Z,1.95
2022-10-16T17:36:58.995Z,1.83
2022-10-16T17:39:31.401Z,2.17
2022-10-16T17:42:01.577Z,2.20
2022-10-16T17:44:30.276Z,2.20
2022-10-16T17:46:58.857Z,2.03
2022-10-16T17:52:42.812Z,2.08
2022-10-16T17:55:12.623Z,2.08
2022-10-16T17:57:41.104Z,1.70
2022-10-16T18:00:16.802Z,2.13
2022-10-16T18:02:45.016Z,2.22
2022-10-16T18:05:13.137Z,2.10
2022-10-16T18:07:43.396Z,2.30
2022-10-16T18:10:12.562Z,2.10
2022-10-16T18:12:43.662Z,2.00
2022-10-16T18:15:14.489Z,2.28
2022-10-16T18:17:45.220Z,2.03
2022-10-16T18:20:20.850Z,1.95
2022-10-16T18:22:52.967Z,1.77
2022-10-16T18:25:21.760Z,1.90
2022-10-16T18:27:51.072Z,1.88
2022-10-16T18:30:20.972Z,1.67
2022-10-16T18:32:51.162Z,1.63
2022-10-16T18:35:22.434Z,1.90
2022-10-16T18:37:56.174Z,1.60
2022-10-16T18:40:25.156Z,1.92
2022-10-16T18:42:53.912Z,1.85
2022-10-16T18:45:25.005Z,1.58
2022-10-16T18:47:53.449Z,1.95
2022-10-16T18:50:25.054Z,1.85
2022-10-16T18:52:58.699Z,1.70
2022-10-16T18:55:30.683Z,1.73
2022-10-16T18:57:59.944Z,1.90
2022-10-16T19:00:29.230Z,1.75
2022-10-16T19:02:57.279Z,1.75
2022-10-16T19:05:25.578Z,1.75
2022-10-16T19:07:55.325Z,1.52
2022-10-16T19:10:23.469Z,1.60
2022-10-16T19:12:59.741Z,1.80
2022-10-16T19:15:35.985Z,1.90
2022-10-16T19:18:04.416Z,1.60
2022-10-16T19:20:33.538Z,1.80
2022-10-16T19:23:07.716Z,1.98
2022-10-16T19:25:41.490Z,1.52
2022-10-16T19:28:09.520Z,1.70
2022-10-16T19:30:44.920Z,1.90
2022-10-16T19:33:14.261Z,1.60
2022-10-16T19:35:42.323Z,1.58
2022-10-16T19:38:13.178Z,1.55
2022-10-16T19:40:47.304Z,1.75
2022-10-16T19:43:20.199Z,1.50
2022-10-16T19:45:53.689Z,1.50
2022-10-16T19:51:03.158Z,1.63
2022-10-16T19:53:40.632Z,1.30
2022-10-16T19:56:21.742Z,1.60
2022-10-16T19:58:53.426Z,1.33
2022-10-16T20:01:21.493Z,1.33
2022-10-16T20:03:50.779Z,1.40
2022-10-16T20:06:19.893Z,1.63
2022-10-16T20:08:51.626Z,1.30
2022-10-16T20:11:21.495Z,1.50
2022-10-16T20:13:50.426Z,1.60
2022-10-16T20:16:22.686Z,1.58
2022-10-16T20:18:56.148Z,1.70
2022-10-16T20:21:26.798Z,1.45
2022-10-16T20:23:57.916Z,1.50
2022-10-16T20:26:30.923Z,1.60
2022-10-16T20:29:00.537Z,1.92
2022-10-16T20:31:33.115Z,1.60
2022-10-16T20:34:06.038Z,1.48
2022-10-16T20:36:35.823Z,1.50
2022-10-16T20:39:12.128Z,1.30
2022-10-16T20:41:40.414Z,1.80
2022-10-16T20:44:09.876Z,1.70
2022-10-16T20:46:38.197Z,1.52
2022-10-16T20:49:11.347Z,1.50
2022-10-16T20:51:50.408Z,1.35
2022-10-16T20:54:20.418Z,1.40
2022-10-16T20:56:49.352Z,1.45
2022-10-16T20:59:17.671Z,1.40
2022-10-16T21:01:46.291Z,1.35
2022-10-16T21:04:15.267Z,1.45
2022-10-16T21:06:45.129Z,1.20
2022-10-16T21:09:13.403Z,1.48
2022-10-16T21:11:44.040Z,1.38
2022-10-16T21:14:12.581Z,1.20
2022-10-16T21:16:40.628Z,1.52
2022-10-16T21:19:08.744Z,1.20
2022-10-16T21:21:39.632Z,1.30
2022-10-16T21:24:12.096Z,1.30
2022-10-16T21:26:44.901Z,1.50
2022-10-16T21:29:15.182Z,1.40
2022-10-16T21:31:45.007Z,1.30
2022-10-16T21:34:14.296Z,1.50
2022-10-16T21:36:45.658Z,1.27
2022-10-16T21:39:19.387Z,1.25
2022-10-16T21:41:51.899Z,1.25
2022-10-16T21:44:21.358Z,1.42
2022-10-16T21:46:51.393Z,1.42
2022-10-16T21:49:24.452Z,1.30
2022-10-16T21:51:52.939Z,1.10
2022-10-16T21:54:23.213Z,1.50
2022-10-16T21:56:55.176Z,1.40
2022-10-16T21:59:24.754Z,1.23
2022-10-16T22:01:59.807Z,1.10
2022-10-16T22:04:28.771Z,1.30
2022-10-16T22:07:02.572Z,1.50
2022-10-16T22:09:36.585Z,1.30
2022-10-16T22:12:10.608Z,1.30
2022-10-16T22:14:43.182Z,1.20
2022-10-16T22:17:14.484Z,1.40
2022-10-16T22:19:45.765Z,1.17
2022-10-16T22:22:18.934Z,1.10
2022-10-16T22:24:48.013Z,1.60
2022-10-16T22:32:50.299Z,1.65
2022-10-16T22:35:18.622Z,1.48
2022-10-16T22:37:49.500Z,1.30
2022-10-16T22:40:26.985Z,1.30
2022-10-16T23:17:43.722Z,1.33
2022-10-16T23:26:19.779Z,1.30
2022-10-16T23:28:51.193Z,1.48
2022-10-16T23:31:21.906Z,1.27
2022-10-16T23:33:55.477Z,1.20
2022-10-16T23:36:27.534Z,1.38
2022-10-16T23:39:07.900Z,1.35
2022-10-16T23:41:40.753Z,1.50
2022-10-16T23:44:10.089Z,1.35
2022-10-16T23:46:46.114Z,1.30
2022-10-16T23:49:26.378Z,1.35
2022-10-16T23:51:55.080Z,1.30
2022-10-16T23:54:25.072Z,1.35
2022-10-16T23:56:53.086Z,1.45
2022-10-16T23:59:24.354Z,1.45
